Time;durP1;ratioP1;P1;durP2;ratioP2;P2;SDS_P1;SDS_P2;PMS_P1;PMS_P2;Temp;Humidity;BMP_temperature;BMP_pressure;BME280_temperature;BME280_humidity;BME280_pressure;Samples;Min_cycle;Max_cycle;Signal;HPM_P1;HPM_P2
2021/05/26 00:01:17;;;;;;;8.73;4.80;;;8.80;99.90;;;;;;4938748;29;20187;-79
2021/05/26 00:03:43;;;;;;;6.90;4.70;;;8.80;99.90;;;;;;4938024;29;20252;-78
2021/05/26 00:06:09;;;;;;;13.20;5.33;;;8.80;99.90;;;;;;4938671;29;20634;-78
2021/05/26 00:08:37;;;;;;;9.30;5.70;;;8.90;99.90;;;;;;4938712;29;20748;-79
2021/05/26 00:11:09;;;;;;;8.40;5.07;;;8.80;99.90;;;;;;4937013;29;20197;-79
2021/05/26 00:13:36;;;;;;;6.85;4.95;;;8.80;99.90;;;;;;4937920;29;20197;-78
2021/05/26 00:16:03;;;;;;;8.85;5.13;;;8.90;99.90;;;;;;4938282;29;20184;-78
2021/05/26 00:18:28;;;;;;;5.95;4.75;;;8.90;99.90;;;;;;4938149;29;20178;-78
2021/05/26 00:20:54;;;;;;;14.30;6.30;;;8.90;99.90;;;;;;4936646;29;20185;-78
2021/05/26 00:23:21;;;;;;;7.17;5.20;;;8.90;99.90;;;;;;4937833;29;20227;-78
2021/05/26 00:25:46;;;;;;;9.77;5.40;;;8.90;99.90;;;;;;4938071;29;20611;-78
2021/05/26 00:28:13;;;;;;;11.50;5.40;;;8.90;99.90;;;;;;4938050;29;20173;-77
2021/05/26 00:30:45;;;;;;;12.93;5.03;;;8.90;99.90;;;;;;4937973;29;20178;-78
2021/05/26 00:33:11;;;;;;;7.78;5.18;;;8.90;99.90;;;;;;4937827;29;20221;-78
2021/05/26 00:35:36;;;;;;;4.93;4.37;;;8.90;99.90;;;;;;4937954;29;20271;-78
2021/05/26 00:38:03;;;;;;;10.23;5.20;;;9.00;99.90;;;;;;4937875;29;20166;-78
2021/05/26 00:40:29;;;;;;;8.38;4.90;;;9.00;99.90;;;;;;4952519;29;20178;-77
2021/05/26 00:42:54;;;;;;;8.00;4.40;;;8.90;99.90;;;;;;4952577;29;20565;-78
2021/05/26 00:45:20;;;;;;;10.37;4.13;;;8.90;99.90;;;;;;4937818;29;20614;-78
2021/05/26 00:47:53;;;;;;;6.10;4.37;;;8.80;99.90;;;;;;4952677;29;20264;-78
2021/05/26 00:50:22;;;;;;;11.63;4.88;;;8.80;99.90;;;;;;4936621;29;20178;-78
2021/05/26 00:52:59;;;;;;;8.88;5.32;;;8.80;99.90;;;;;;4936082;29;20655;-78
2021/05/26 00:55:26;;;;;;;11.80;5.05;;;8.80;99.90;;;;;;4937826;29;20189;-78
2021/05/26 00:57:52;;;;;;;5.88;5.03;;;8.80;99.90;;;;;;4936511;29;20277;-78
2021/05/26 01:00:20;;;;;;;10.33;3.70;;;8.80;99.90;;;;;;4936171;29;20209;-78
2021/05/26 01:02:47;;;;;;;5.65;3.80;;;8.70;99.90;;;;;;4936145;29;20794;-78
2021/05/26 01:05:14;;;;;;;6.10;4.72;;;8.70;99.90;;;;;;4936573;29;20213;-77
2021/05/26 01:07:41;;;;;;;10.15;3.47;;;8.70;99.90;;;;;;4936548;29;20185;-78
2021/05/26 01:10:16;;;;;;;8.77;4.25;;;8.70;99.90;;;;;;4935878;29;20722;-78
2021/05/26 01:12:42;;;;;;;6.85;3.83;;;8.70;99.90;;;;;;4937341;29;20225;-78
2021/05/26 01:15:16;;;;;;;7.00;4.78;;;8.80;99.90;;;;;;4937184;29;20265;-78
2021/05/26 01:17:42;;;;;;;10.10;3.85;;;8.70;99.90;;;;;;4936404;29;20273;-78
2021/05/26 01:20:19;;;;;;;12.60;4.10;;;8.70;99.90;;;;;;4937240;29;20272;-78
2021/05/26 01:22:45;;;;;;;10.68;3.78;;;8.80;99.90;;;;;;4935792;29;20256;-78
2021/05/26 01:25:17;;;;;;;11.43;4.40;;;8.80;99.90;;;;;;4936823;29;20292;-77
2021/05/26 01:27:43;;;;;;;13.15;3.70;;;8.80;99.90;;;;;;4935501;29;20178;-77
2021/05/26 01:30:09;;;;;;;6.77;3.47;;;8.80;99.90;;;;;;4935870;29;20245;-77
2021/05/26 01:32:53;;;;;;;8.80;3.65;;;8.80;99.90;;;;;;4951154;28;20253;-77
2021/05/26 01:35:19;;;;;;;7.40;4.18;;;8.80;99.90;;;;;;4936527;29;20162;-77
2021/05/26 01:37:47;;;;;;;9.65;4.15;;;9.00;99.90;;;;;;4936708;29;20204;-77
2021/05/26 01:40:16;;;;;;;11.18;4.70;;;9.00;99.90;;;;;;4936568;29;20216;-77
2021/05/26 01:42:42;;;;;;;14.27;4.47;;;8.90;99.90;;;;;;4936514;29;20188;-77
2021/05/26 01:45:10;;;;;;;10.00;4.20;;;8.90;99.90;;;;;;4934939;29;20217;-77
2021/05/26 01:47:35;;;;;;;13.55;4.35;;;8.90;99.90;;;;;;4936304;29;20236;-76
2021/05/26 01:50:02;;;;;;;6.40;3.63;;;8.90;99.90;;;;;;4935245;29;20193;-77
2021/05/26 01:52:27;;;;;;;8.90;3.50;;;8.90;99.90;;;;;;4935265;29;20598;-76
2021/05/26 01:54:53;;;;;;;9.13;4.67;;;8.90;99.90;;;;;;4934626;29;20210;-77
2021/05/26 01:57:18;;;;;;;8.43;3.47;;;8.90;99.90;;;;;;4936413;29;20188;-76
2021/05/26 01:59:44;;;;;;;10.03;5.00;;;8.80;99.90;;;;;;4936479;29;20261;-77
2021/05/26 02:02:10;;;;;;;4.80;3.40;;;8.90;99.90;;;;;;4936316;29;20181;-77
2021/05/26 02:04:35;;;;;;;10.03;4.30;;;8.90;99.90;;;;;;4934531;29;20220;-77
2021/05/26 02:07:04;;;;;;;8.40;4.27;;;8.90;99.90;;;;;;4936145;29;20529;-77
2021/05/26 02:09:30;;;;;;;7.95;4.10;;;8.90;99.90;;;;;;4934986;29;20188;-77
2021/05/26 02:14:40;;;;;;;11.98;3.85;;;8.80;99.90;;;;;;4935981;29;20215;-78
2021/05/26 02:17:08;;;;;;;11.60;3.97;;;8.90;99.90;;;;;;4935425;29;20181;-78
2021/05/26 02:19:34;;;;;;;12.43;3.53;;;8.90;99.90;;;;;;4934956;29;20182;-78
2021/05/26 02:22:00;;;;;;;7.30;4.67;;;8.90;99.90;;;;;;4951065;29;20189;-77
2021/05/26 02:24:26;;;;;;;8.80;3.28;;;8.90;99.90;;;;;;4935669;29;20827;-78
2021/05/26 02:26:51;;;;;;;15.20;4.40;;;9.00;99.90;;;;;;4950694;29;20186;-77
2021/05/26 02:29:17;;;;;;;9.60;3.77;;;9.00;99.90;;;;;;4934765;29;20270;-79
2021/05/26 02:31:43;;;;;;;12.90;4.50;;;9.00;99.90;;;;;;4936064;29;20181;-79
2021/05/26 02:34:10;;;;;;;6.13;3.53;;;9.10;99.90;;;;;;4935654;29;20253;-78
2021/05/26 02:36:38;;;;;;;12.35;4.30;;;9.10;99.90;;;;;;4935882;29;20260;-78
2021/05/26 02:39:05;;;;;;;9.00;2.95;;;9.10;99.90;;;;;;4950438;29;20548;-78
2021/05/26 02:41:31;;;;;;;7.93;4.00;;;9.20;99.90;;;;;;4935828;29;20177;-77
2021/05/26 02:43:56;;;;;;;8.03;3.40;;;9.20;99.90;;;;;;4936944;29;20302;-78
2021/05/26 02:46:22;;;;;;;8.50;3.50;;;9.10;99.90;;;;;;4939803;29;20453;-77
2021/05/26 02:48:47;;;;;;;6.93;3.53;;;9.10;99.90;;;;;;4939756;29;20174;-77
2021/05/26 02:51:13;;;;;;;7.33;3.70;;;9.10;99.90;;;;;;4939626;29;20178;-77
2021/05/26 02:53:38;;;;;;;11.70;3.47;;;9.10;99.90;;;;;;4939322;29;20284;-78
2021/05/26 02:56:04;;;;;;;9.17;3.63;;;9.00;99.90;;;;;;4939787;29;20213;-76
2021/05/26 02:58:30;;;;;;;12.23;4.00;;;9.00;99.90;;;;;;4939543;29;20264;-76
2021/05/26 03:00:55;;;;;;;8.97;3.63;;;9.00;99.90;;;;;;4938202;29;20647;-76
2021/05/26 03:03:21;;;;;;;12.73;4.07;;;8.90;99.90;;;;;;4939569;29;20216;-76
2021/05/26 03:05:47;;;;;;;11.80;4.00;;;8.90;99.90;;;;;;4939467;29;20284;-79
2021/05/26 03:08:12;;;;;;;14.63;4.10;;;8.80;99.90;;;;;;4939418;29;20188;-79
2021/05/26 03:10:38;;;;;;;9.00;3.00;;;8.80;99.90;;;;;;4938030;29;20241;-76
2021/05/26 03:13:03;;;;;;;5.40;2.80;;;8.70;99.90;;;;;;4938991;29;20173;-78
2021/05/26 03:15:29;;;;;;;9.47;5.50;;;8.70;99.90;;;;;;4939250;29;20260;-78
2021/05/26 03:17:55;;;;;;;7.80;3.00;;;8.80;99.90;;;;;;4939490;29;20204;-78
2021/05/26 03:20:20;;;;;;;8.60;3.63;;;8.70;99.90;;;;;;4939182;29;20189;-78
2021/05/26 03:22:46;;;;;;;10.63;3.53;;;8.70;99.90;;;;;;4938984;29;20587;-78
2021/05/26 03:25:14;;;;;;;10.00;3.60;;;8.60;99.90;;;;;;4953610;29;20309;-78
2021/05/26 03:27:40;;;;;;;10.35;3.80;;;8.70;99.90;;;;;;4937846;29;20417;-78
2021/05/26 03:30:14;;;;;;;5.50;3.60;;;8.60;99.90;;;;;;4939059;29;20546;-78
2021/05/26 03:32:40;;;;;;;8.05;3.13;;;8.60;99.90;;;;;;4937750;29;20185;-78
2021/05/26 03:35:07;;;;;;;7.47;3.25;;;8.60;99.90;;;;;;4938594;29;20202;-78
2021/05/26 03:37:33;;;;;;;9.93;3.67;;;8.60;99.90;;;;;;4938731;29;20611;-78
2021/05/26 03:39:59;;;;;;;6.40;2.90;;;8.50;99.90;;;;;;4937594;29;20195;-78
2021/05/26 03:42:25;;;;;;;3.60;2.90;;;8.50;99.90;;;;;;4938855;29;20217;-78
2021/05/26 03:44:50;;;;;;;6.30;2.87;;;8.50;99.90;;;;;;4937192;29;20246;-78
2021/05/26 03:47:17;;;;;;;4.43;2.70;;;8.50;99.90;;;;;;4938701;29;20190;-79
2021/05/26 03:49:43;;;;;;;4.40;2.90;;;8.50;99.90;;;;;;4938737;29;20177;-78
2021/05/26 03:52:09;;;;;;;5.90;2.75;;;8.50;99.90;;;;;;4938722;29;20180;-78
2021/05/26 03:54:35;;;;;;;5.77;3.33;;;8.50;99.90;;;;;;4938391;29;20209;-78
2021/05/26 03:57:05;;;;;;;9.57;2.63;;;8.60;99.90;;;;;;4937981;29;20263;-78
2021/05/26 03:59:31;;;;;;;7.75;3.35;;;8.60;99.90;;;;;;4938379;29;20204;-79
2021/05/26 04:01:56;;;;;;;7.33;3.87;;;8.70;99.90;;;;;;4937400;29;20551;-78
2021/05/26 04:04:22;;;;;;;4.70;3.57;;;8.70;99.90;;;;;;4938162;29;20296;-78
2021/05/26 04:06:48;;;;;;;5.17;2.93;;;8.70;99.90;;;;;;4938405;29;20425;-78
2021/05/26 04:09:14;;;;;;;7.80;3.60;;;8.60;99.90;;;;;;4938408;29;20492;-80
2021/05/26 04:11:40;;;;;;;12.03;3.57;;;8.70;99.90;;;;;;4938139;29;20184;-79
2021/05/26 04:14:06;;;;;;;3.45;2.83;;;8.60;99.90;;;;;;4936890;29;20205;-79
2021/05/26 04:16:32;;;;;;;5.67;3.17;;;8.70;99.90;;;;;;4938125;29;20178;-78
2021/05/26 04:18:57;;;;;;;3.23;2.77;;;8.70;99.90;;;;;;4938328;29;20452;-78
2021/05/26 04:21:23;;;;;;;5.73;3.20;;;8.80;99.90;;;;;;4938121;29;20174;-78
2021/05/26 04:23:49;;;;;;;5.00;2.33;;;8.80;99.90;;;;;;4937735;29;20193;-79
2021/05/26 04:26:15;;;;;;;4.17;2.47;;;8.80;99.90;;;;;;4937976;29;20212;-79
2021/05/26 04:28:44;;;;;;;8.53;2.37;;;8.90;99.90;;;;;;4936688;29;20440;-79
2021/05/26 04:31:11;;;;;;;5.32;2.75;;;8.90;99.90;;;;;;4937932;29;20177;-79
2021/05/26 04:33:37;;;;;;;3.22;2.50;;;8.90;99.90;;;;;;4937501;29;20202;-77
2021/05/26 04:36:04;;;;;;;4.90;2.83;;;9.00;99.90;;;;;;4952432;29;20204;-79
2021/05/26 04:38:29;;;;;;;4.30;2.90;;;9.10;99.90;;;;;;4936573;29;20438;-79
2021/05/26 04:40:55;;;;;;;3.70;2.50;;;9.20;99.90;;;;;;4937849;29;20244;-79
2021/05/26 04:43:20;;;;;;;7.83;3.57;;;9.30;99.90;;;;;;4937526;29;20201;-79
2021/05/26 04:45:46;;;;;;;7.30;3.13;;;9.20;99.90;;;;;;4936483;29;20205;-77
2021/05/26 04:48:12;;;;;;;4.40;2.80;;;9.20;99.90;;;;;;4937588;29;20178;-77
2021/05/26 04:50:38;;;;;;;4.40;2.70;;;9.30;99.90;;;;;;4952259;29;20241;-77
2021/05/26 04:53:03;;;;;;;3.57;2.77;;;9.30;99.90;;;;;;4937246;29;20188;-77
2021/05/26 04:55:29;;;;;;;5.70;2.70;;;9.30;99.90;;;;;;4937513;29;20422;-77
2021/05/26 04:58:06;;;;;;;4.80;2.70;;;9.30;99.90;;;;;;4937369;29;20217;-77
2021/05/26 05:00:32;;;;;;;6.70;2.20;;;9.30;99.90;;;;;;4937304;29;20610;-77
2021/05/26 05:02:57;;;;;;;3.58;2.33;;;9.30;99.90;;;;;;4951865;29;20592;-77
2021/05/26 05:05:24;;;;;;;2.37;2.17;;;9.30;99.90;;;;;;4935910;29;20213;-77
2021/05/26 05:07:50;;;;;;;7.05;2.60;;;9.30;99.90;;;;;;4935135;29;20190;-77
2021/05/26 05:10:16;;;;;;;6.57;2.30;;;9.40;99.90;;;;;;4937517;29;20552;-77
2021/05/26 05:12:41;;;;;;;2.23;2.03;;;9.40;99.90;;;;;;4936082;29;20556;-77
2021/05/26 05:15:08;;;;;;;5.20;2.47;;;9.40;99.90;;;;;;4936783;29;20457;-78
2021/05/26 05:17:34;;;;;;;4.80;2.42;;;9.40;99.90;;;;;;4937217;29;20890;-77
2021/05/26 05:20:00;;;;;;;4.03;2.13;;;9.30;99.90;;;;;;4937112;29;20185;-78
2021/05/26 05:22:26;;;;;;;3.13;2.10;;;9.30;99.90;;;;;;4936969;29;20230;-77
2021/05/26 05:24:52;;;;;;;2.80;2.07;;;9.30;99.90;;;;;;4936543;29;20209;-77
2021/05/26 05:27:17;;;;;;;4.22;2.03;;;9.40;99.90;;;;;;4937043;29;20414;-78
2021/05/26 05:29:43;;;;;;;2.40;2.00;;;9.40;99.90;;;;;;4935670;29;20192;-77
2021/05/26 05:32:09;;;;;;;2.77;2.50;;;9.50;99.90;;;;;;4936734;29;20173;-78
2021/05/26 05:34:35;;;;;;;4.32;2.42;;;9.50;99.90;;;;;;4935142;29;20212;-78
2021/05/26 05:37:01;;;;;;;2.97;1.93;;;9.60;99.90;;;;;;4936700;29;20201;-78
2021/05/26 05:39:26;;;;;;;2.83;2.17;;;9.70;99.90;;;;;;4936711;29;20185;-78
2021/05/26 05:41:52;;;;;;;1.63;1.53;;;9.70;99.90;;;;;;4935467;29;20224;-77
2021/05/26 05:44:17;;;;;;;1.60;1.50;;;9.70;99.90;;;;;;4950941;29;20312;-78
2021/05/26 05:46:43;;;;;;;4.03;2.03;;;9.80;99.90;;;;;;4936547;29;20718;-78
2021/05/26 05:49:09;;;;;;;2.30;1.77;;;9.80;99.90;;;;;;4936584;29;20188;-78
2021/05/26 05:51:34;;;;;;;2.73;1.53;;;9.80;99.90;;;;;;4936495;29;20209;-77
2021/05/26 05:54:00;;;;;;;4.47;1.90;;;9.80;99.90;;;;;;4936233;29;20209;-77
2021/05/26 05:56:26;;;;;;;1.90;1.70;;;9.80;99.90;;;;;;4936331;29;20225;-78
2021/05/26 05:58:51;;;;;;;2.83;1.50;;;9.80;99.90;;;;;;4936479;29;20273;-77
2021/05/26 06:01:17;;;;;;;1.73;1.63;;;9.90;99.90;;;;;;4934994;29;20248;-77
2021/05/26 06:03:42;;;;;;;2.73;1.37;;;9.90;99.90;;;;;;4936054;29;20209;-78
2021/05/26 06:06:08;;;;;;;1.87;1.10;;;9.90;99.90;;;;;;4936342;29;20213;-78
2021/05/26 06:08:35;;;;;;;4.40;1.30;;;10.00;99.90;;;;;;4936143;29;20225;-78
2021/05/26 06:11:02;;;;;;;2.17;1.20;;;10.00;99.90;;;;;;4936208;29;20178;-78
2021/05/26 06:13:28;;;;;;;1.60;1.00;;;10.10;99.90;;;;;;4935979;29;20260;-79
2021/05/26 06:15:54;;;;;;;1.50;0.90;;;10.10;99.90;;;;;;4950927;29;20189;-78
2021/05/26 06:18:20;;;;;;;1.33;1.07;;;10.20;99.90;;;;;;4936236;29;20268;-79
2021/05/26 06:20:45;;;;;;;3.80;1.03;;;10.20;99.90;;;;;;4936251;29;20473;-78
2021/05/26 06:23:11;;;;;;;1.90;0.87;;;10.10;99.90;;;;;;4935975;29;20441;-78
2021/05/26 06:25:38;;;;;;;1.90;0.83;;;9.80;99.90;;;;;;4951055;29;20205;-78
2021/05/26 06:28:04;;;;;;;1.73;0.80;;;9.90;99.90;;;;;;4950745;29;20268;-78
2021/05/26 06:30:30;;;;;;;1.15;1.05;;;9.90;99.90;;;;;;4936103;29;20209;-79
2021/05/26 06:32:55;;;;;;;3.40;0.83;;;9.90;99.90;;;;;;4935706;29;20200;-79
2021/05/26 06:35:21;;;;;;;0.80;0.70;;;9.90;99.90;;;;;;4935800;29;20642;-79
2021/05/26 06:37:47;;;;;;;1.50;0.90;;;9.90;99.90;;;;;;4935947;29;20181;-79
2021/05/26 06:40:14;;;;;;;1.77;0.80;;;10.00;99.90;;;;;;4935887;29;20185;-79
2021/05/26 06:42:40;;;;;;;2.55;1.35;;;10.10;99.90;;;;;;4950405;29;20182;-77
2021/05/26 06:45:06;;;;;;;0.97;0.80;;;10.00;99.90;;;;;;4935483;29;20720;-77
2021/05/26 06:47:32;;;;;;;2.20;0.60;;;10.10;99.90;;;;;;4935619;29;20182;-77
2021/05/26 06:49:58;;;;;;;1.30;0.80;;;10.20;99.90;;;;;;4935791;29;20533;-77
2021/05/26 06:52:23;;;;;;;1.23;0.80;;;10.20;99.90;;;;;;4935602;29;20196;-79
2021/05/26 06:54:49;;;;;;;1.00;0.80;;;10.30;99.90;;;;;;4934061;29;20213;-79
2021/05/26 06:57:17;;;;;;;2.90;0.90;;;10.40;99.90;;;;;;4935727;29;20186;-79
2021/05/26 06:59:43;;;;;;;1.50;1.00;;;10.50;99.90;;;;;;4934493;29;20540;-79
2021/05/26 07:02:08;;;;;;;1.10;0.90;;;10.40;99.90;;;;;;4934817;29;20196;-79
2021/05/26 07:04:34;;;;;;;1.67;0.80;;;10.40;99.90;;;;;;4935309;29;20205;-79
2021/05/26 07:07:00;;;;;;;3.57;0.90;;;10.60;99.90;;;;;;4950527;29;20264;-79
2021/05/26 07:09:26;;;;;;;0.90;0.70;;;10.50;99.90;;;;;;4934466;29;20181;-79
2021/05/26 07:11:52;;;;;;;0.90;0.80;;;10.60;99.90;;;;;;4934319;29;20213;-79
2021/05/26 07:14:17;;;;;;;1.00;0.70;;;10.70;99.90;;;;;;4935477;29;20949;-81
2021/05/26 07:16:43;;;;;;;1.20;0.90;;;10.80;99.90;;;;;;4935693;29;20178;-80
2021/05/26 07:19:09;;;;;;;0.93;0.73;;;10.90;99.90;;;;;;4935579;29;20245;-81
2021/05/26 07:21:34;;;;;;;1.67;0.93;;;11.20;99.90;;;;;;4935724;29;20595;-81
2021/05/26 07:24:00;;;;;;;1.37;0.90;;;11.10;99.90;;;;;;4935276;29;20276;-79
2021/05/26 07:26:26;;;;;;;1.30;0.80;;;11.00;99.90;;;;;;4935070;29;20638;-80
2021/05/26 07:28:51;;;;;;;0.93;0.80;;;10.90;99.90;;;;;;4935346;29;20178;-80
2021/05/26 07:31:17;;;;;;;1.27;0.80;;;10.80;99.90;;;;;;4937193;29;20647;-80
2021/05/26 07:33:43;;;;;;;3.58;0.90;;;10.80;99.90;;;;;;4938719;29;20233;-80
2021/05/26 07:36:09;;;;;;;2.30;0.70;;;10.80;99.90;;;;;;4938846;29;20625;-79
2021/05/26 07:38:35;;;;;;;1.07;0.63;;;10.60;99.90;;;;;;4938968;29;20265;-79
2021/05/26 07:41:02;;;;;;;1.57;0.70;;;10.70;99.90;;;;;;4938865;29;20189;-79
2021/05/26 07:43:29;;;;;;;1.08;0.70;;;10.80;99.90;;;;;;4938414;29;20441;-79
2021/05/26 07:45:54;;;;;;;0.70;0.60;;;10.70;99.90;;;;;;4953276;29;20213;-79
2021/05/26 07:48:20;;;;;;;1.00;0.90;;;10.50;99.90;;;;;;4938708;29;20208;-80
2021/05/26 07:50:46;;;;;;;0.80;0.70;;;10.70;99.90;;;;;;4938671;29;20670;-80
2021/05/26 07:53:12;;;;;;;0.80;0.68;;;10.70;99.90;;;;;;4938128;29;20551;-79
2021/05/26 07:55:38;;;;;;;2.80;1.00;;;10.80;99.90;;;;;;4953208;29;20284;-79
2021/05/26 07:58:04;;;;;;;1.00;0.83;;;10.60;99.90;;;;;;4938467;29;20269;-78
2021/05/26 08:00:29;;;;;;;2.07;0.80;;;10.60;99.90;;;;;;4937068;29;20193;-79
2021/05/26 08:02:55;;;;;;;1.30;1.07;;;10.60;99.90;;;;;;4937955;29;20433;-79
2021/05/26 08:05:21;;;;;;;1.80;0.87;;;10.80;99.90;;;;;;4936785;29;20296;-78
2021/05/26 08:07:47;;;;;;;0.80;0.70;;;11.00;99.90;;;;;;4952197;29;20178;-80
2021/05/26 08:10:14;;;;;;;2.33;1.50;;;11.20;99.90;;;;;;4937745;29;20228;-78
2021/05/26 08:12:39;;;;;;;2.00;1.27;;;11.20;99.90;;;;;;4938246;29;20180;-80
2021/05/26 08:15:06;;;;;;;1.97;0.90;;;11.40;99.90;;;;;;4936720;29;20590;-79
2021/05/26 08:17:32;;;;;;;1.00;0.60;;;11.70;99.90;;;;;;4938157;29;20205;-82
2021/05/26 08:20:01;;;;;;;0.87;0.77;;;11.90;99.90;;;;;;4938205;29;20648;-79
2021/05/26 08:22:28;;;;;;;1.00;0.70;;;12.10;99.90;;;;;;4936723;29;21002;-81
2021/05/26 08:24:54;;;;;;;2.10;0.80;;;12.30;99.90;;;;;;4937640;29;20931;-79
2021/05/26 08:27:19;;;;;;;1.20;0.80;;;12.40;99.90;;;;;;4938394;29;20464;-78
2021/05/26 08:29:45;;;;;;;2.20;0.90;;;12.60;99.90;;;;;;4936433;29;20488;-79
2021/05/26 08:32:11;;;;;;;2.20;1.17;;;12.40;99.90;;;;;;4938120;29;20185;-79
2021/05/26 08:34:37;;;;;;;2.40;0.93;;;12.30;99.90;;;;;;4937101;29;20939;-79
2021/05/26 08:37:03;;;;;;;2.33;0.90;;;12.10;99.90;;;;;;4952317;29;20201;-79
2021/05/26 08:39:33;;;;;;;1.77;0.90;;;12.00;99.90;;;;;;4937650;29;20201;-79
2021/05/26 08:41:59;;;;;;;2.47;0.83;;;11.90;99.90;;;;;;4936338;29;20232;-78
2021/05/26 08:44:25;;;;;;;1.73;0.70;;;11.80;99.90;;;;;;4936165;29;20544;-79
2021/05/26 08:46:52;;;;;;;1.47;1.00;;;11.80;99.90;;;;;;4937742;29;20550;-78
2021/05/26 08:49:19;;;;;;;1.63;1.00;;;11.80;99.90;;;;;;4936302;29;20425;-79
2021/05/26 08:51:45;;;;;;;1.10;0.95;;;12.00;99.90;;;;;;4937545;29;20427;-80
2021/05/26 08:54:11;;;;;;;5.53;0.90;;;11.90;99.90;;;;;;4937185;29;20201;-80
2021/05/26 08:56:37;;;;;;;0.90;0.70;;;12.00;99.90;;;;;;4936253;29;20521;-81
2021/05/26 08:59:03;;;;;;;2.13;0.80;;;12.20;99.90;;;;;;4920356;29;20433;-79
2021/05/26 09:01:29;;;;;;;1.60;1.00;;;12.30;99.90;;;;;;4937482;29;20496;-80
2021/05/26 09:03:55;;;;;;;2.60;1.00;;;12.20;99.90;;;;;;4935874;29;20533;-79
2021/05/26 09:06:20;;;;;;;2.00;0.83;;;12.10;99.90;;;;;;4937294;29;20270;-80
2021/05/26 09:08:50;;;;;;;1.80;0.73;;;12.30;99.90;;;;;;4937384;29;20424;-81
2021/05/26 09:11:41;;;;;;;2.50;1.07;;;12.50;99.90;;;;;;4937532;29;20591;-80
2021/05/26 09:14:11;;;;;;;3.80;0.70;;;12.50;99.90;;;;;;4936773;29;20533;-79
2021/05/26 09:16:38;;;;;;;1.37;0.67;;;12.60;99.90;;;;;;4904507;29;20429;-80
2021/05/26 09:19:06;;;;;;;1.57;0.70;;;12.70;99.90;;;;;;4937305;29;20727;-79
2021/05/26 09:21:54;;;;;;;1.27;0.97;;;12.30;99.90;;;;;;4935925;29;20449;-80
2021/05/26 09:24:20;;;;;;;1.27;1.03;;;12.40;99.90;;;;;;4951084;29;21367;-79
2021/05/26 09:26:53;;;;;;;1.53;1.00;;;12.40;99.90;;;;;;4936954;29;20421;-81
2021/05/26 09:29:30;;;;;;;1.63;1.27;;;12.60;99.90;;;;;;4935749;29;20170;-81
2021/05/26 09:32:24;;;;;;;1.00;0.90;;;12.70;99.90;;;;;;4936843;29;20750;-79
2021/05/26 09:34:57;;;;;;;4.67;2.00;;;12.40;99.90;;;;;;4931532;29;20445;-79
2021/05/26 09:37:24;;;;;;;2.63;0.80;;;12.40;99.90;;;;;;4935383;29;20800;-79
2021/05/26 09:40:00;;;;;;;1.13;0.90;;;12.20;99.90;;;;;;4935339;29;20480;-79
2021/05/26 09:42:28;;;;;;;1.23;0.90;;;12.10;99.90;;;;;;4935571;29;20516;-78
2021/05/26 09:45:20;;;;;;;0.93;0.83;;;12.20;99.90;;;;;;4936270;29;20197;-79
2021/05/26 09:47:47;;;;;;;1.60;0.80;;;12.00;99.90;;;;;;4936470;29;20780;-78
2021/05/26 09:50:34;;;;;;;1.52;1.00;;;11.90;99.90;;;;;;4936391;29;20494;-77
2021/05/26 09:53:10;;;;;;;3.30;0.80;;;12.00;99.90;;;;;;4935721;29;20182;-78
2021/05/26 09:55:38;;;;;;;4.97;1.43;;;12.10;99.90;;;;;;4936405;29;20485;-77
2021/05/26 09:58:07;;;;;;;1.00;0.80;;;12.20;99.90;;;;;;4935065;29;20421;-77
2021/05/26 10:00:34;;;;;;;2.27;1.03;;;12.10;99.90;;;;;;4936152;29;20418;-77
2021/05/26 10:03:00;;;;;;;4.10;1.10;;;12.10;99.90;;;;;;4933883;29;20433;-77
2021/05/26 10:05:26;;;;;;;2.63;1.43;;;12.00;99.90;;;;;;4936104;29;20938;-77
2021/05/26 10:07:53;;;;;;;4.20;1.45;;;12.00;99.90;;;;;;4936032;29;20181;-78
2021/05/26 10:10:20;;;;;;;1.30;0.90;;;12.10;99.90;;;;;;4936217;29;20233;-78
2021/05/26 10:12:53;;;;;;;2.83;1.25;;;11.80;99.90;;;;;;4935827;29;20445;-77
2021/05/26 10:15:20;;;;;;;0.93;0.82;;;11.70;99.90;;;;;;4936126;29;20216;-76
2021/05/26 10:17:51;;;;;;;4.15;1.25;;;11.90;99.90;;;;;;4936114;29;20212;-79
2021/05/26 10:20:22;;;;;;;1.15;1.00;;;12.10;99.90;;;;;;4936126;29;20221;-78
2021/05/26 10:22:50;;;;;;;2.17;1.50;;;12.00;99.90;;;;;;4935718;29;20855;-78
2021/05/26 10:25:16;;;;;;;1.83;1.13;;;12.00;99.90;;;;;;4935803;29;20257;-77
2021/05/26 10:27:56;;;;;;;2.80;1.40;;;12.10;99.90;;;;;;4936025;29;20261;-77
2021/05/26 10:30:26;;;;;;;2.17;1.55;;;12.10;99.90;;;;;;4935990;29;20416;-78
2021/05/26 10:33:00;;;;;;;3.07;1.57;;;12.10;99.90;;;;;;4935556;29;20225;-77
2021/05/26 10:35:27;;;;;;;1.80;1.60;;;12.10;99.90;;;;;;4935947;29;20424;-76
2021/05/26 10:38:07;;;;;;;2.25;1.75;;;11.90;99.90;;;;;;4936177;29;20464;-75
2021/05/26 10:40:43;;;;;;;1.85;1.40;;;11.90;99.90;;;;;;4936051;29;20185;-76
2021/05/26 10:43:15;;;;;;;1.87;1.33;;;11.80;99.90;;;;;;4935591;29;20200;-77
2021/05/26 10:45:42;;;;;;;3.15;2.65;;;12.30;99.90;;;;;;4935673;29;20449;-76
2021/05/26 10:48:07;;;;;;;5.03;4.43;;;12.40;99.90;;;;;;4935701;29;20173;-76
2021/05/26 10:50:45;;;;;;;3.73;2.23;;;12.50;99.90;;;;;;4935505;29;20417;-76
2021/05/26 10:53:14;;;;;;;2.73;1.97;;;12.50;99.90;;;;;;4935423;29;20560;-75
2021/05/26 10:55:45;;;;;;;3.77;1.40;;;12.50;99.90;;;;;;4934373;29;20898;-76
2021/05/26 10:58:10;;;;;;;2.03;1.83;;;12.40;99.90;;;;;;4935697;29;20456;-76
2021/05/26 11:00:36;;;;;;;1.70;1.60;;;12.40;99.90;;;;;;4935672;29;20429;-78
2021/05/26 11:03:27;;;;;;;2.03;1.60;;;12.50;99.90;;;;;;4917781;29;20280;-75
2021/05/26 11:06:13;;;;;;;2.33;1.83;;;12.60;99.90;;;;;;4917897;29;20552;-76
2021/05/26 11:08:48;;;;;;;2.57;1.83;;;12.60;99.90;;;;;;4920398;29;20414;-76
2021/05/26 11:11:27;;;;;;;1.40;1.30;;;12.60;99.90;;;;;;4920397;29;20413;-76
2021/05/26 11:14:02;;;;;;;1.83;1.50;;;12.30;99.90;;;;;;4919998;29;20185;-75
2021/05/26 11:16:45;;;;;;;1.92;1.52;;;12.20;99.90;;;;;;4920245;29;20476;-76
2021/05/26 11:19:22;;;;;;;1.60;1.30;;;12.30;99.90;;;;;;4920524;29;20170;-77
2021/05/26 11:22:01;;;;;;;2.80;1.40;;;12.30;99.90;;;;;;4920193;29;20445;-76
2021/05/26 11:24:30;;;;;;;5.00;3.00;;;12.30;99.90;;;;;;4919746;29;20449;-76
2021/05/26 11:26:56;;;;;;;2.80;2.23;;;12.50;99.90;;;;;;4920198;29;20422;-76
2021/05/26 11:29:37;;;;;;;1.83;1.70;;;12.60;99.90;;;;;;4920110;29;20790;-77
2021/05/26 11:32:17;;;;;;;1.70;1.30;;;12.50;99.90;;;;;;4920195;29;20550;-76
2021/05/26 11:34:45;;;;;;;1.97;1.50;;;12.50;99.90;;;;;;4919693;29;20533;-77
2021/05/26 11:37:23;;;;;;;4.57;1.67;;;12.10;99.90;;;;;;4919703;29;20438;-77
2021/05/26 11:39:49;;;;;;;1.70;1.30;;;12.00;99.90;;;;;;4920034;29;20762;-77
2021/05/26 11:42:50;;;;;;;3.73;1.10;;;11.70;99.90;;;;;;4934534;29;20517;-79
2021/05/26 11:45:16;;;;;;;3.03;1.30;;;11.60;99.90;;;;;;4934488;29;20205;-77
2021/05/26 11:47:42;;;;;;;1.80;1.03;;;11.40;99.90;;;;;;4919808;29;20189;-77
2021/05/26 11:50:17;;;;;;;2.58;1.40;;;11.60;99.90;;;;;;4919541;29;20182;-77
2021/05/26 11:52:47;;;;;;;2.22;1.30;;;11.60;99.90;;;;;;4919355;29;20183;-77
2021/05/26 11:55:14;;;;;;;3.53;1.73;;;11.70;99.90;;;;;;4919284;29;20190;-77
2021/05/26 11:57:44;;;;;;;1.65;1.10;;;12.00;99.90;;;;;;4919423;29;20269;-77
2021/05/26 12:00:18;;;;;;;1.55;1.10;;;11.90;99.90;;;;;;4919396;29;20190;-76
2021/05/26 12:03:05;;;;;;;2.65;1.10;;;11.90;99.90;;;;;;4933693;29;20602;-77
2021/05/26 12:05:41;;;;;;;1.33;1.23;;;12.20;99.90;;;;;;4919173;29;20204;-77
2021/05/26 12:08:27;;;;;;;1.50;1.40;;;12.50;99.90;;;;;;4919398;29;20185;-76
2021/05/26 12:10:58;;;;;;;1.52;1.42;;;12.80;99.90;;;;;;4919367;29;20174;-77
2021/05/26 12:13:32;;;;;;;1.52;1.05;;;13.00;99.90;;;;;;4918808;29;20278;-77
2021/05/26 12:16:02;;;;;;;1.87;1.10;;;13.30;99.90;;;;;;4917759;29;20197;-76
2021/05/26 12:18:28;;;;;;;2.10;1.70;;;13.10;99.90;;;;;;4919300;29;20463;-77
2021/05/26 12:20:55;;;;;;;1.27;1.17;;;12.90;99.90;;;;;;4919196;29;20434;-76
2021/05/26 12:23:31;;;;;;;2.17;1.20;;;13.00;99.90;;;;;;4918699;29;20438;-78
2021/05/26 12:25:57;;;;;;;2.07;0.97;;;13.00;99.90;;;;;;4918976;29;20458;-77
2021/05/26 12:28:23;;;;;;;1.17;1.00;;;12.90;99.90;;;;;;4933689;29;20426;-78
2021/05/26 12:30:51;;;;;;;4.03;1.20;;;12.90;99.90;;;;;;4919011;29;20941;-76
2021/05/26 12:33:17;;;;;;;1.97;1.30;;;12.80;99.90;;;;;;4918709;29;20826;-76
2021/05/26 12:35:44;;;;;;;1.35;1.20;;;12.80;99.90;;;;;;4918610;29;20430;-76
2021/05/26 12:38:20;;;;;;;3.50;1.27;;;12.60;99.90;;;;;;4919094;29;20194;-76
2021/05/26 12:40:47;;;;;;;1.60;1.50;;;12.70;99.90;;;;;;4918995;29;20277;-76
2021/05/26 12:43:28;;;;;;;1.80;1.53;;;12.90;99.90;;;;;;4935755;29;20460;-77
2021/05/26 12:45:54;;;;;;;2.00;1.43;;;12.70;99.90;;;;;;4937646;29;20499;-78
2021/05/26 12:48:21;;;;;;;1.50;1.23;;;12.80;99.90;;;;;;4937717;29;20477;-78
2021/05/26 12:50:47;;;;;;;4.40;1.30;;;13.10;99.90;;;;;;4937692;29;20922;-76
2021/05/26 12:53:16;;;;;;;2.10;1.87;;;13.60;99.90;;;;;;4937180;29;20497;-77
2021/05/26 12:55:42;;;;;;;1.57;1.47;;;13.80;99.90;;;;;;4936053;29;20421;-78
2021/05/26 12:58:16;;;;;;;1.97;1.40;;;14.00;99.90;;;;;;4937501;29;20492;-77